Orlando International Airport
KMCO : now visible

Airfield :











YOU CAN JOIN US ON...

 
LOGIN :

Register | Disclaimer

   EN    FR    IT 

 









Legend :    VFR   Marginal VFR   IFR   Intensive IFR   Very Intensive IFR
Visi :
Ceiling :
>= 8 km
>= 3000ft
5 to 8 km
1000 to 3000 ft
1500m to 5 km
500 to 1000 ft
800 to 1500m
200 to 500 ft
< 800m
< 200 ft
Symbols :   Thunderstorms  Fog  Heavy snow  Heavy precipitations  Wind > 20 kt







- Airport Elevation : 96 ft
- IATA code : MCO


KMCO - Orlando International

CURRENT METAR :
  • 260153Z 03011KT 10SM FEW020 27/24 A2998 RMK AO2 SLP150 T02720239 $

EXPIRED METARs :
  • 260053Z 05009KT 10SM FEW025 FEW250 28/23 A2995 RMK AO2 SLP142 T02780233 $
  • 252353Z 04011KT 10SM FEW030 SCT060 BKN250 29/23 A2993 RMK AO2 SLP133 T02890228 10339 20289 53006 $

TAF KMCO
Valid from the 26 at 00:00 until the 27 at 06:00 UTC


252349Z 2600/2706 05010KT P6SM FEW035 FEW060 SCT250
FM260400 02003KT P6SM FEW040 SCT250
FM261400 09005KT P6SM SCT025 SCT250
FM262000 09008KT P6SM VCTS SCT040CB BKN070
TEMPO 2622/2624 3SM TSRA BKN030CB
FM270200 VRB03KT P6SM SCT070 BKN140 BKN250
No reported NOTAMs for that airfield.



MET'MAP, your aeronautical weather chart ! - Copyright ORBIFLY December 2007 - Disclaimer

ORBIFLY MET'MAP TEAM :

Programming & Development : Alexandra Zaïnal
Concept & Development : Baudouin d'Aumeries
Co-Development & Prog : Marc-Olivier Méhu
Technical & hardware support : Manuel Goepfert

Contact : metmap@orbifly.com




SOURCES & CREDITS :

   NOAA       Earth
Advisory